Alder, Montana
Current Conditions -  °F | °C
As of 8:53 PM on Sunday 23 Nov 2014 (Local Time) from KDLN Reporting Station
Few Clouds Few Clouds  
Wind Chill: -6°   Ceiling: Unl
Heat Index: -2°   Visibility: 10mi
Dew Point: -6°   Wind: 7mph
Humidity: 72%   Direction: 210°SSW
Pressure: 29.96"   Gusts: NA
Location:  45.32°N, 112.11°W
Report Text: KDLN 240353Z AUTO 21006KT 10SM FEW030 M02/M06 A2996 RMK AO2 PK WND 22029/0326 SLP173 T10171061
Loading
Personal Weather Stations






























Interactive Weather Map New forecast layout! Learn more

10-Day Weather Forecast

Advertisements
Track Severe Weather on mobile